sensor_id;sensor_type;location;lat;lon;timestamp;pressure;altitude;pressure_sealevel;temperature
73673;BMP280;61972;19.480;-99.240;2023-03-01T00:01:34;77396.75;;;30.25
73673;BMP280;61972;19.480;-99.240;2023-03-01T00:04:00;77386.22;;;30.25
73673;BMP280;61972;19.480;-99.240;2023-03-01T00:06:27;77384.66;;;30.26
73673;BMP280;61972;19.480;-99.240;2023-03-01T00:08:53;77380.94;;;30.25
73673;BMP280;61972;19.480;-99.240;2023-03-01T00:11:25;77387.31;;;30.26
73673;BMP280;61972;19.480;-99.240;2023-03-01T00:13:54;77391.47;;;30.25
73673;BMP280;61972;19.480;-99.240;2023-03-01T00:16:32;77387.75;;;30.24
73673;BMP280;61972;19.480;-99.240;2023-03-01T00:19:02;77393.00;;;30.24
73673;BMP280;61972;19.480;-99.240;2023-03-01T00:21:29;77395.66;;;30.24
73673;BMP280;61972;19.480;-99.240;2023-03-01T00:23:55;77400.91;;;30.24
73673;BMP280;61972;19.480;-99.240;2023-03-01T00:26:23;77406.19;;;30.24
73673;BMP280;61972;19.480;-99.240;2023-03-01T00:28:50;77404.66;;;30.25
73673;BMP280;61972;19.480;-99.240;2023-03-01T00:31:20;77411.47;;;30.24
73673;BMP280;61972;19.480;-99.240;2023-03-01T00:33:47;77410.34;;;30.23
73673;BMP280;61972;19.480;-99.240;2023-03-01T00:36:16;77425.06;;;30.22
73673;BMP280;61972;19.480;-99.240;2023-03-01T00:38:44;77417.69;;;30.23
73673;BMP280;61972;19.480;-99.240;2023-03-01T00:41:14;77419.25;;;30.22
73673;BMP280;61972;19.480;-99.240;2023-03-01T00:43:40;77423.97;;;30.21
73673;BMP280;61972;19.480;-99.240;2023-03-01T00:46:16;77426.59;;;30.21
73673;BMP280;61972;19.480;-99.240;2023-03-01T00:48:42;77427.72;;;30.22
73673;BMP280;61972;19.480;-99.240;2023-03-01T00:51:14;77429.25;;;30.21
73673;BMP280;61972;19.480;-99.240;2023-03-01T00:53:40;77437.16;;;30.21
73673;BMP280;61972;19.480;-99.240;2023-03-01T00:56:11;77438.13;;;30.20
73673;BMP280;61972;19.480;-99.240;2023-03-01T00:58:38;77436.47;;;30.18
73673;BMP280;61972;19.480;-99.240;2023-03-01T01:01:15;77443.72;;;30.15
73673;BMP280;61972;19.480;-99.240;2023-03-01T01:03:50;77447.44;;;30.16
73673;BMP280;61972;19.480;-99.240;2023-03-01T01:06:21;77446.81;;;30.13
73673;BMP280;61972;19.480;-99.240;2023-03-01T01:08:48;77451.50;;;30.12
73673;BMP280;61972;19.480;-99.240;2023-03-01T01:11:15;77455.13;;;30.11
73673;BMP280;61972;19.480;-99.240;2023-03-01T01:13:43;77456.09;;;30.09
73673;BMP280;61972;19.480;-99.240;2023-03-01T01:16:11;77462.38;;;30.08
73673;BMP280;61972;19.480;-99.240;2023-03-01T01:18:38;77463.34;;;30.06
73673;BMP280;61972;19.480;-99.240;2023-03-01T01:21:07;77468.50;;;30.04
73673;BMP280;61972;19.480;-99.240;2023-03-01T01:23:33;77465.19;;;30.01
73673;BMP280;61972;19.480;-99.240;2023-03-01T01:26:14;77469.91;;;30.00
73673;BMP280;61972;19.480;-99.240;2023-03-01T01:28:42;77477.72;;;29.97
73673;BMP280;61972;19.480;-99.240;2023-03-01T01:31:09;77479.66;;;29.94
73673;BMP280;61972;19.480;-99.240;2023-03-01T01:33:36;77478.56;;;29.93
73673;BMP280;61972;19.480;-99.240;2023-03-01T01:36:04;77483.28;;;29.93
73673;BMP280;61972;19.480;-99.240;2023-03-01T01:38:30;77492.72;;;29.92
73673;BMP280;61972;19.480;-99.240;2023-03-01T01:40:57;77488.41;;;29.90
73673;BMP280;61972;19.480;-99.240;2023-03-01T01:43:26;77498.28;;;29.87
73673;BMP280;61972;19.480;-99.240;2023-03-01T01:45:59;77501.38;;;29.85
73673;BMP280;61972;19.480;-99.240;2023-03-01T01:48:34;77509.69;;;29.83
73673;BMP280;61972;19.480;-99.240;2023-03-01T01:51:11;77512.19;;;29.81
73673;BMP280;61972;19.480;-99.240;2023-03-01T01:53:39;77514.72;;;29.78
73673;BMP280;61972;19.480;-99.240;2023-03-01T01:56:09;77513.59;;;29.77
73673;BMP280;61972;19.480;-99.240;2023-03-01T01:58:38;77517.75;;;29.76
73673;BMP280;61972;19.480;-99.240;2023-03-01T02:01:05;77521.69;;;29.70
73673;BMP280;61972;19.480;-99.240;2023-03-01T02:03:33;77525.19;;;29.66
73673;BMP280;61972;19.480;-99.240;2023-03-01T02:06:13;77523.41;;;29.62
73673;BMP280;61972;19.480;-99.240;2023-03-01T02:08:43;77537.00;;;29.59
73673;BMP280;61972;19.480;-99.240;2023-03-01T02:11:10;77538.97;;;29.56
73673;BMP280;61972;19.480;-99.240;2023-03-01T02:13:46;77537.16;;;29.52
73673;BMP280;61972;19.480;-99.240;2023-03-01T02:16:16;77533.84;;;29.49
73673;BMP280;61972;19.480;-99.240;2023-03-01T02:18:43;77542.63;;;29.45
73673;BMP280;61972;19.480;-99.240;2023-03-01T02:24:24;77540.16;;;29.38
73673;BMP280;61972;19.480;-99.240;2023-03-01T02:26:55;77549.03;;;29.36
73673;BMP280;61972;19.480;-99.240;2023-03-01T02:29:23;77554.81;;;29.37
73673;BMP280;61972;19.480;-99.240;2023-03-01T02:31:51;77557.34;;;29.34
73673;BMP280;61972;19.480;-99.240;2023-03-01T02:34:22;77555.69;;;29.33
73673;BMP280;61972;19.480;-99.240;2023-03-01T02:36:55;77567.75;;;29.32
73673;BMP280;61972;19.480;-99.240;2023-03-01T02:39:36;77578.28;;;29.32
73673;BMP280;61972;19.480;-99.240;2023-03-01T02:42:13;77577.72;;;29.31
73673;BMP280;61972;19.480;-99.240;2023-03-01T02:44:40;77589.91;;;29.33
73673;BMP280;61972;19.480;-99.240;2023-03-01T02:47:06;77599.34;;;29.32
73673;BMP280;61972;19.480;-99.240;2023-03-01T02:49:35;77608.34;;;29.33
73673;BMP280;61972;19.480;-99.240;2023-03-01T02:52:21;77611.94;;;29.31
73673;BMP280;61972;19.480;-99.240;2023-03-01T02:55:00;77610.81;;;29.30
73673;BMP280;61972;19.480;-99.240;2023-03-01T02:57:28;77620.41;;;29.32
73673;BMP280;61972;19.480;-99.240;2023-03-01T02:59:59;77618.19;;;29.30
73673;BMP280;61972;19.480;-99.240;2023-03-01T03:02:32;77620.25;;;29.29
73673;BMP280;61972;19.480;-99.240;2023-03-01T03:05:04;77621.66;;;29.26
73673;BMP280;61972;19.480;-99.240;2023-03-01T03:07:33;77622.06;;;29.24
73673;BMP280;61972;19.480;-99.240;2023-03-01T03:10:00;77620.41;;;29.22
73673;BMP280;61972;19.480;-99.240;2023-03-01T03:12:26;77626.50;;;29.18
73673;BMP280;61972;19.480;-99.240;2023-03-01T03:14:52;77628.03;;;29.17
73673;BMP280;61972;19.480;-99.240;2023-03-01T03:17:19;77634.28;;;29.15
73673;BMP280;61972;19.480;-99.240;2023-03-01T03:19:45;77639.00;;;29.15
73673;BMP280;61972;19.480;-99.240;2023-03-01T03:22:12;77635.25;;;29.14
73673;BMP280;61972;19.480;-99.240;2023-03-01T03:24:38;77635.13;;;29.11
73673;BMP280;61972;19.480;-99.240;2023-03-01T03:27:05;77638.72;;;29.10
73673;BMP280;61972;19.480;-99.240;2023-03-01T03:29:34;77651.88;;;29.10
73673;BMP280;61972;19.480;-99.240;2023-03-01T03:32:07;77646.63;;;29.10
73673;BMP280;61972;19.480;-99.240;2023-03-01T03:34:41;77654.63;;;29.12
73673;BMP280;61972;19.480;-99.240;2023-03-01T03:37:50;77653.81;;;29.16
73673;BMP280;61972;19.480;-99.240;2023-03-01T03:43:54;77663.75;;;29.35
73673;BMP280;61972;19.480;-99.240;2023-03-01T03:46:23;77664.81;;;29.46
73673;BMP280;61972;19.480;-99.240;2023-03-01T03:48:55;77662.72;;;29.56
73673;BMP280;61972;19.480;-99.240;2023-03-01T03:51:22;77668.09;;;29.69
73673;BMP280;61972;19.480;-99.240;2023-03-01T03:54:23;77669.97;;;29.85
73673;BMP280;61972;19.480;-99.240;2023-03-01T04:06:52;77680.72;;;30.54
73673;BMP280;61972;19.480;-99.240;2023-03-01T04:09:21;77682.88;;;30.66
73673;BMP280;61972;19.480;-99.240;2023-03-01T04:11:53;77680.84;;;30.79
73673;BMP280;61972;19.480;-99.240;2023-03-01T04:14:28;77671.84;;;30.90
73673;BMP280;61972;19.480;-99.240;2023-03-01T04:23:08;77670.94;;;31.16
73673;BMP280;61972;19.480;-99.240;2023-03-01T04:25:58;77680.56;;;31.18
73673;BMP280;61972;19.480;-99.240;2023-03-01T04:28:26;77673.69;;;31.19
73673;BMP280;61972;19.480;-99.240;2023-03-01T04:30:56;77678.97;;;31.19
73673;BMP280;61972;19.480;-99.240;2023-03-01T04:33:26;77681.22;;;31.21
73673;BMP280;61972;19.480;-99.240;2023-03-01T04:35:55;77679.97;;;31.17
73673;BMP280;61972;19.480;-99.240;2023-03-01T04:38:25;77684.72;;;31.17
73673;BMP280;61972;19.480;-99.240;2023-03-01T04:40:54;77686.25;;;31.16
73673;BMP280;61972;19.480;-99.240;2023-03-01T04:43:21;77679.75;;;31.12
73673;BMP280;61972;19.480;-99.240;2023-03-01T04:45:47;77682.25;;;31.09
73673;BMP280;61972;19.480;-99.240;2023-03-01T04:51:23;77677.19;;;31.02
73673;BMP280;61972;19.480;-99.240;2023-03-01T04:54:28;77673.19;;;30.96
73673;BMP280;61972;19.480;-99.240;2023-03-01T04:56:54;77669.88;;;30.93
73673;BMP280;61972;19.480;-99.240;2023-03-01T04:59:21;77671.28;;;30.89
73673;BMP280;61972;19.480;-99.240;2023-03-01T05:01:53;77669.53;;;30.85
73673;BMP280;61972;19.480;-99.240;2023-03-01T05:04:24;77669.81;;;30.81
73673;BMP280;61972;19.480;-99.240;2023-03-01T05:06:53;77664.88;;;30.76
73673;BMP280;61972;19.480;-99.240;2023-03-01T05:09:51;77670.47;;;30.71
73673;BMP280;61972;19.480;-99.240;2023-03-01T05:12:18;77668.41;;;30.72
73673;BMP280;61972;19.480;-99.240;2023-03-01T05:14:44;77674.53;;;30.68
73673;BMP280;61972;19.480;-99.240;2023-03-01T05:17:11;77678.13;;;30.66
73673;BMP280;61972;19.480;-99.240;2023-03-01T05:19:37;77672.72;;;30.64
73673;BMP280;61972;19.480;-99.240;2023-03-01T05:22:03;77673.16;;;30.62
73673;BMP280;61972;19.480;-99.240;2023-03-01T05:24:35;77679.84;;;30.58
73673;BMP280;61972;19.480;-99.240;2023-03-01T05:27:02;77674.47;;;30.55
73673;BMP280;61972;19.480;-99.240;2023-03-01T05:29:32;77672.25;;;30.53
73673;BMP280;61972;19.480;-99.240;2023-03-01T05:32:01;77666.28;;;30.50
73673;BMP280;61972;19.480;-99.240;2023-03-01T05:34:30;77666.06;;;30.45
73673;BMP280;61972;19.480;-99.240;2023-03-01T05:37:00;77666.47;;;30.43
73673;BMP280;61972;19.480;-99.240;2023-03-01T05:39:29;77667.47;;;30.42
73673;BMP280;61972;19.480;-99.240;2023-03-01T05:42:24;77664.81;;;30.42
73673;BMP280;61972;19.480;-99.240;2023-03-01T05:44:56;77666.91;;;30.41
73673;BMP280;61972;19.480;-99.240;2023-03-01T05:47:31;77663.28;;;30.43
73673;BMP280;61972;19.480;-99.240;2023-03-01T05:49:57;77668.13;;;30.45
73673;BMP280;61972;19.480;-99.240;2023-03-01T05:52:23;77673.09;;;30.49
73673;BMP280;61972;19.480;-99.240;2023-03-01T05:54:52;77673.78;;;30.52
73673;BMP280;61972;19.480;-99.240;2023-03-01T05:57:51;77672.38;;;30.56
73673;BMP280;61972;19.480;-99.240;2023-03-01T06:00:27;77679.00;;;30.62
73673;BMP280;61972;19.480;-99.240;2023-03-01T06:02:58;77679.22;;;30.67
73673;BMP280;61972;19.480;-99.240;2023-03-01T06:05:24;77677.28;;;30.70
73673;BMP280;61972;19.480;-99.240;2023-03-01T06:07:51;77676.44;;;30.74
73673;BMP280;61972;19.480;-99.240;2023-03-01T06:10:19;77684.44;;;30.77
73673;BMP280;61972;19.480;-99.240;2023-03-01T06:12:46;77680.84;;;30.79
73673;BMP280;61972;19.480;-99.240;2023-03-01T06:15:14;77673.56;;;30.82
73673;BMP280;61972;19.480;-99.240;2023-03-01T06:17:44;77674.25;;;30.85
73673;BMP280;61972;19.480;-99.240;2023-03-01T06:20:14;77677.00;;;30.87
73673;BMP280;61972;19.480;-99.240;2023-03-01T06:22:42;77677.69;;;30.90
73673;BMP280;61972;19.480;-99.240;2023-03-01T06:25:13;77675.16;;;30.93
73673;BMP280;61972;19.480;-99.240;2023-03-01T06:27:40;77676.84;;;30.95
73673;BMP280;61972;19.480;-99.240;2023-03-01T06:30:08;77677.34;;;30.95
73673;BMP280;61972;19.480;-99.240;2023-03-01T06:32:37;77674.88;;;30.98
73673;BMP280;61972;19.480;-99.240;2023-03-01T06:35:44;77676.50;;;30.99
73673;BMP280;61972;19.480;-99.240;2023-03-01T06:38:09;77669.81;;;31.03
73673;BMP280;61972;19.480;-99.240;2023-03-01T06:40:36;77662.88;;;31.01
73673;BMP280;61972;19.480;-99.240;2023-03-01T06:43:02;77671.91;;;31.02
73673;BMP280;61972;19.480;-99.240;2023-03-01T06:45:28;77676.06;;;31.01
73673;BMP280;61972;19.480;-99.240;2023-03-01T06:48:07;77672.88;;;31.01
73673;BMP280;61972;19.480;-99.240;2023-03-01T06:50:36;77673.44;;;31.01
73673;BMP280;61972;19.480;-99.240;2023-03-01T06:53:03;77674.97;;;31.00
73673;BMP280;61972;19.480;-99.240;2023-03-01T06:55:30;77669.28;;;31.02
73673;BMP280;61972;19.480;-99.240;2023-03-01T06:57:57;77678.97;;;31.06
73673;BMP280;61972;19.480;-99.240;2023-03-01T07:00:25;77683.81;;;31.08
73673;BMP280;61972;19.480;-99.240;2023-03-01T07:03:01;77670.59;;;31.08
73673;BMP280;61972;19.480;-99.240;2023-03-01T07:05:28;77678.09;;;31.10
73673;BMP280;61972;19.480;-99.240;2023-03-01T07:07:55;77673.91;;;31.11
73673;BMP280;61972;19.480;-99.240;2023-03-01T07:10:32;77666.53;;;31.12
73673;BMP280;61972;19.480;-99.240;2023-03-01T07:12:58;77675.00;;;31.12
73673;BMP280;61972;19.480;-99.240;2023-03-01T07:15:28;77662.91;;;31.13
73673;BMP280;61972;19.480;-99.240;2023-03-01T07:18:12;77658.19;;;31.14
73673;BMP280;61972;19.480;-99.240;2023-03-01T07:20:38;77655.53;;;31.14
73673;BMP280;61972;19.480;-99.240;2023-03-01T07:23:10;77657.63;;;31.13
73673;BMP280;61972;19.480;-99.240;2023-03-01T07:25:36;77656.13;;;31.15
73673;BMP280;61972;19.480;-99.240;2023-03-01T07:28:02;77642.34;;;31.14
73673;BMP280;61972;19.480;-99.240;2023-03-01T07:30:31;77639.72;;;31.14
73673;BMP280;61972;19.480;-99.240;2023-03-01T07:33:00;77628.59;;;31.13
73673;BMP280;61972;19.480;-99.240;2023-03-01T07:35:27;77637.19;;;31.17
73673;BMP280;61972;19.480;-99.240;2023-03-01T07:37:53;77628.72;;;31.16
73673;BMP280;61972;19.480;-99.240;2023-03-01T07:40:20;77629.28;;;31.17
73673;BMP280;61972;19.480;-99.240;2023-03-01T07:42:46;77630.38;;;31.18
73673;BMP280;61972;19.480;-99.240;2023-03-01T07:45:12;77638.06;;;31.12
73673;BMP280;61972;19.480;-99.240;2023-03-01T07:47:39;77638.72;;;31.03
73673;BMP280;61972;19.480;-99.240;2023-03-01T07:50:06;77632.50;;;30.95
73673;BMP280;61972;19.480;-99.240;2023-03-01T07:52:32;77633.25;;;30.88
73673;BMP280;61972;19.480;-99.240;2023-03-01T07:54:58;77632.28;;;30.90
73673;BMP280;61972;19.480;-99.240;2023-03-01T07:57:25;77623.50;;;30.94
73673;BMP280;61972;19.480;-99.240;2023-03-01T07:59:51;77616.47;;;31.02
73673;BMP280;61972;19.480;-99.240;2023-03-01T08:02:17;77617.94;;;31.11
73673;BMP280;61972;19.480;-99.240;2023-03-01T08:04:43;77614.09;;;31.20
73673;BMP280;61972;19.480;-99.240;2023-03-01T08:07:09;77612.91;;;31.28
73673;BMP280;61972;19.480;-99.240;2023-03-01T08:09:35;77612.78;;;31.38
73673;BMP280;61972;19.480;-99.240;2023-03-01T08:12:03;77620.06;;;31.47
73673;BMP280;61972;19.480;-99.240;2023-03-01T08:14:33;77610.84;;;31.54
73673;BMP280;61972;19.480;-99.240;2023-03-01T08:16:59;77605.31;;;31.61
73673;BMP280;61972;19.480;-99.240;2023-03-01T08:19:25;77613.59;;;31.68
73673;BMP280;61972;19.480;-99.240;2023-03-01T08:21:53;77611.28;;;31.76
73673;BMP280;61972;19.480;-99.240;2023-03-01T08:24:20;77599.41;;;31.82
73673;BMP280;61972;19.480;-99.240;2023-03-01T08:26:46;77603.34;;;31.88
73673;BMP280;61972;19.480;-99.240;2023-03-01T08:29:12;77604.66;;;31.95
73673;BMP280;61972;19.480;-99.240;2023-03-01T08:31:39;77600.16;;;32.00
73673;BMP280;61972;19.480;-99.240;2023-03-01T08:34:09;77598.28;;;32.06
73673;BMP280;61972;19.480;-99.240;2023-03-01T08:36:38;77594.75;;;32.10
73673;BMP280;61972;19.480;-99.240;2023-03-01T08:39:07;77601.31;;;32.16
73673;BMP280;61972;19.480;-99.240;2023-03-01T08:41:34;77597.25;;;32.20
73673;BMP280;61972;19.480;-99.240;2023-03-01T08:44:00;77595.81;;;32.23
73673;BMP280;61972;19.480;-99.240;2023-03-01T08:46:28;77591.19;;;32.26
73673;BMP280;61972;19.480;-99.240;2023-03-01T08:48:55;77589.19;;;32.29
73673;BMP280;61972;19.480;-99.240;2023-03-01T08:51:23;77588.31;;;32.34
73673;BMP280;61972;19.480;-99.240;2023-03-01T08:53:49;77599.06;;;32.39
73673;BMP280;61972;19.480;-99.240;2023-03-01T08:56:16;77600.63;;;32.38
73673;BMP280;61972;19.480;-99.240;2023-03-01T08:58:47;77598.22;;;32.31
73673;BMP280;61972;19.480;-99.240;2023-03-01T09:01:16;77605.75;;;32.20
73673;BMP280;61972;19.480;-99.240;2023-03-01T09:03:43;77612.03;;;32.06
73673;BMP280;61972;19.480;-99.240;2023-03-01T09:06:10;77602.91;;;31.90
73673;BMP280;61972;19.480;-99.240;2023-03-01T09:08:38;77599.59;;;31.75
73673;BMP280;61972;19.480;-99.240;2023-03-01T09:11:05;77598.94;;;31.60
73673;BMP280;61972;19.480;-99.240;2023-03-01T09:13:32;77603.00;;;31.44
73673;BMP280;61972;19.480;-99.240;2023-03-01T09:16:00;77607.06;;;31.28
73673;BMP280;61972;19.480;-99.240;2023-03-01T09:18:28;77602.75;;;31.14
73673;BMP280;61972;19.480;-99.240;2023-03-01T09:21:04;77600.41;;;30.97
73673;BMP280;61972;19.480;-99.240;2023-03-01T09:23:39;77596.09;;;30.83
73673;BMP280;61972;19.480;-99.240;2023-03-01T09:26:07;77600.66;;;30.68
73673;BMP280;61972;19.480;-99.240;2023-03-01T09:28:35;77592.13;;;30.55
73673;BMP280;61972;19.480;-99.240;2023-03-01T09:31:02;77601.66;;;30.44
73673;BMP280;61972;19.480;-99.240;2023-03-01T09:33:35;77598.41;;;30.31
73673;BMP280;61972;19.480;-99.240;2023-03-01T09:36:04;77593.78;;;30.22
73673;BMP280;61972;19.480;-99.240;2023-03-01T09:38:31;77586.91;;;30.11
73673;BMP280;61972;19.480;-99.240;2023-03-01T09:40:58;77593.31;;;30.02
73673;BMP280;61972;19.480;-99.240;2023-03-01T09:43:34;77588.13;;;29.92
73673;BMP280;61972;19.480;-99.240;2023-03-01T09:46:09;77594.41;;;29.81
73673;BMP280;61972;19.480;-99.240;2023-03-01T09:51:18;77585.50;;;29.61
73673;BMP280;61972;19.480;-99.240;2023-03-01T09:53:45;77577.78;;;29.53
73673;BMP280;61972;19.480;-99.240;2023-03-01T09:56:22;77576.84;;;29.45
73673;BMP280;61972;19.480;-99.240;2023-03-01T10:04:45;77578.84;;;29.23
73673;BMP280;61972;19.480;-99.240;2023-03-01T10:10:26;77584.31;;;29.06
73673;BMP280;61972;19.480;-99.240;2023-03-01T10:12:54;77594.00;;;29.00
73673;BMP280;61972;19.480;-99.240;2023-03-01T10:15:29;77596.25;;;28.92
73673;BMP280;61972;19.480;-99.240;2023-03-01T10:18:04;77595.44;;;28.87
73673;BMP280;61972;19.480;-99.240;2023-03-01T10:20:46;77601.38;;;28.80
73673;BMP280;61972;19.480;-99.240;2023-03-01T10:23:16;77604.28;;;28.75
73673;BMP280;61972;19.480;-99.240;2023-03-01T10:25:59;77607.63;;;28.69
73673;BMP280;61972;19.480;-99.240;2023-03-01T10:31:05;77604.47;;;28.58
73673;BMP280;61972;19.480;-99.240;2023-03-01T10:33:35;77598.94;;;28.53
73673;BMP280;61972;19.480;-99.240;2023-03-01T10:36:03;77607.63;;;28.49
73673;BMP280;61972;19.480;-99.240;2023-03-01T10:38:31;77600.03;;;28.44
73673;BMP280;61972;19.480;-99.240;2023-03-01T10:41:12;77603.50;;;28.40
73673;BMP280;61972;19.480;-99.240;2023-03-01T10:43:50;77605.72;;;28.33
73673;BMP280;61972;19.480;-99.240;2023-03-01T10:46:34;77600.75;;;28.28
73673;BMP280;61972;19.480;-99.240;2023-03-01T10:49:22;77614.69;;;28.24
73673;BMP280;61972;19.480;-99.240;2023-03-01T10:51:52;77623.38;;;28.20
73673;BMP280;61972;19.480;-99.240;2023-03-01T10:54:31;77616.34;;;28.16
73673;BMP280;61972;19.480;-99.240;2023-03-01T10:57:00;77623.94;;;28.11
73673;BMP280;61972;19.480;-99.240;2023-03-01T10:59:38;77630.00;;;28.06
73673;BMP280;61972;19.480;-99.240;2023-03-01T11:02:21;77628.22;;;28.02
73673;BMP280;61972;19.480;-99.240;2023-03-01T11:07:47;77636.22;;;27.95
73673;BMP280;61972;19.480;-99.240;2023-03-01T11:10:38;77627.63;;;27.92
73673;BMP280;61972;19.480;-99.240;2023-03-01T11:13:18;77636.91;;;27.88
73673;BMP280;61972;19.480;-99.240;2023-03-01T11:16:09;77636.59;;;27.83
73673;BMP280;61972;19.480;-99.240;2023-03-01T11:18:37;77633.81;;;27.81
73673;BMP280;61972;19.480;-99.240;2023-03-01T11:21:03;77642.13;;;27.79
73673;BMP280;61972;19.480;-99.240;2023-03-01T11:23:32;77638.81;;;27.76
73673;BMP280;61972;19.480;-99.240;2023-03-01T11:26:02;77641.84;;;27.74
73673;BMP280;61972;19.480;-99.240;2023-03-01T11:28:30;77641.69;;;27.71
73673;BMP280;61972;19.480;-99.240;2023-03-01T11:31:14;77645.69;;;27.67
73673;BMP280;61972;19.480;-99.240;2023-03-01T11:33:49;77649.81;;;27.66
73673;BMP280;61972;19.480;-99.240;2023-03-01T11:42:03;77649.25;;;27.56
73673;BMP280;61972;19.480;-99.240;2023-03-01T11:44:33;77656.41;;;27.53
73673;BMP280;61972;19.480;-99.240;2023-03-01T11:49:51;77665.50;;;27.47
73673;BMP280;61972;19.480;-99.240;2023-03-01T11:52:59;77667.44;;;27.44
73673;BMP280;61972;19.480;-99.240;2023-03-01T12:22:43;77701.94;;;27.15
73673;BMP280;61972;19.480;-99.240;2023-03-01T12:31:16;77714.34;;;27.12
73673;BMP280;61972;19.480;-99.240;2023-03-01T12:34:15;77710.47;;;27.08
73673;BMP280;61972;19.480;-99.240;2023-03-01T12:40:01;77727.56;;;27.05
73673;BMP280;61972;19.480;-99.240;2023-03-01T12:42:43;77737.34;;;27.02
73673;BMP280;61972;19.480;-99.240;2023-03-01T12:46:34;77729.31;;;26.99
73673;BMP280;61972;19.480;-99.240;2023-03-01T12:51:06;77734.41;;;26.97
73673;BMP280;61972;19.480;-99.240;2023-03-01T12:53:43;77740.59;;;26.95
73673;BMP280;61972;19.480;-99.240;2023-03-01T12:56:22;77744.16;;;26.93
73673;BMP280;61972;19.480;-99.240;2023-03-01T13:02:01;77748.69;;;26.90
73673;BMP280;61972;19.480;-99.240;2023-03-01T13:10:29;77747.69;;;26.82
73673;BMP280;61972;19.480;-99.240;2023-03-01T13:13:02;77758.97;;;26.78
73673;BMP280;61972;19.480;-99.240;2023-03-01T13:15:38;77754.50;;;26.74
73673;BMP280;61972;19.480;-99.240;2023-03-01T13:20:49;77767.69;;;26.67
73673;BMP280;61972;19.480;-99.240;2023-03-01T13:26:05;77761.00;;;26.61
73673;BMP280;61972;19.480;-99.240;2023-03-01T13:31:36;77768.19;;;26.57
73673;BMP280;61972;19.480;-99.240;2023-03-01T13:33:58;77759.22;;;26.56
73673;BMP280;61972;19.480;-99.240;2023-03-01T13:39:03;77765.63;;;26.50
73673;BMP280;61972;19.480;-99.240;2023-03-01T13:47:16;77774.50;;;26.42
73673;BMP280;61972;19.480;-99.240;2023-03-01T13:49:51;77773.94;;;26.41
73673;BMP280;61972;19.480;-99.240;2023-03-01T13:52:42;77783.72;;;26.38
73673;BMP280;61972;19.480;-99.240;2023-03-01T13:57:48;77780.38;;;26.35
73673;BMP280;61972;19.480;-99.240;2023-03-01T14:00:37;77786.00;;;26.33
73673;BMP280;61972;19.480;-99.240;2023-03-01T14:03:12;77787.53;;;26.32
73673;BMP280;61972;19.480;-99.240;2023-03-01T14:05:40;77785.84;;;26.30
73673;BMP280;61972;19.480;-99.240;2023-03-01T14:08:19;77789.41;;;26.29
73673;BMP280;61972;19.480;-99.240;2023-03-01T14:11:05;77792.41;;;26.27
73673;BMP280;61972;19.480;-99.240;2023-03-01T14:13:44;77796.56;;;26.26
73673;BMP280;61972;19.480;-99.240;2023-03-01T14:16:31;77797.50;;;26.24
73673;BMP280;61972;19.480;-99.240;2023-03-01T14:19:19;77795.28;;;26.22
73673;BMP280;61972;19.480;-99.240;2023-03-01T14:24:47;77805.03;;;26.19
73673;BMP280;61972;19.480;-99.240;2023-03-01T14:27:15;77803.91;;;26.18
73673;BMP280;61972;19.480;-99.240;2023-03-01T14:29:58;77811.63;;;26.15
73673;BMP280;61972;19.480;-99.240;2023-03-01T14:32:27;77807.88;;;26.14
73673;BMP280;61972;19.480;-99.240;2023-03-01T14:34:56;77807.88;;;26.14
73673;BMP280;61972;19.480;-99.240;2023-03-01T14:37:32;77814.06;;;26.13
73673;BMP280;61972;19.480;-99.240;2023-03-01T14:40:00;77814.06;;;26.13
73673;BMP280;61972;19.480;-99.240;2023-03-01T14:42:34;77818.19;;;26.12
73673;BMP280;61972;19.480;-99.240;2023-03-01T14:45:04;77811.25;;;26.10
73673;BMP280;61972;19.480;-99.240;2023-03-01T14:47:34;77818.00;;;26.09
73673;BMP280;61972;19.480;-99.240;2023-03-01T14:50:21;77820.09;;;26.09
73673;BMP280;61972;19.480;-99.240;2023-03-01T14:52:50;77822.13;;;26.08
73673;BMP280;61972;19.480;-99.240;2023-03-01T14:55:19;77817.84;;;26.07
73673;BMP280;61972;19.480;-99.240;2023-03-01T14:57:49;77820.47;;;26.07
73673;BMP280;61972;19.480;-99.240;2023-03-01T15:00:22;77827.22;;;26.06
73673;BMP280;61972;19.480;-99.240;2023-03-01T15:02:51;77825.53;;;26.04
73673;BMP280;61972;19.480;-99.240;2023-03-01T15:05:33;77831.91;;;26.05
73673;BMP280;61972;19.480;-99.240;2023-03-01T15:08:01;77836.00;;;26.04
73673;BMP280;61972;19.480;-99.240;2023-03-01T15:10:30;77842.38;;;26.05
73673;BMP280;61972;19.480;-99.240;2023-03-01T15:13:11;77851.16;;;26.03
73673;BMP280;61972;19.480;-99.240;2023-03-01T15:15:45;77849.66;;;26.05
73673;BMP280;61972;19.480;-99.240;2023-03-01T15:18:32;77852.13;;;26.02
73673;BMP280;61972;19.480;-99.240;2023-03-01T15:21:26;77850.03;;;26.02
73673;BMP280;61972;19.480;-99.240;2023-03-01T15:24:16;77850.59;;;26.03
73673;BMP280;61972;19.480;-99.240;2023-03-01T15:26:51;77852.13;;;26.02
73673;BMP280;61972;19.480;-99.240;2023-03-01T15:29:26;77848.38;;;26.01
73673;BMP280;61972;19.480;-99.240;2023-03-01T15:32:00;77853.63;;;26.01
73673;BMP280;61972;19.480;-99.240;2023-03-01T15:34:36;77854.75;;;26.02
73673;BMP280;61972;19.480;-99.240;2023-03-01T15:37:05;77848.38;;;26.01
73673;BMP280;61972;19.480;-99.240;2023-03-01T15:39:39;77853.63;;;26.01
73673;BMP280;61972;19.480;-99.240;2023-03-01T15:45:20;77849.88;;;26.00
73673;BMP280;61972;19.480;-99.240;2023-03-01T15:47:48;77856.22;;;26.01
73673;BMP280;61972;19.480;-99.240;2023-03-01T15:50:26;77853.63;;;26.01
73673;BMP280;61972;19.480;-99.240;2023-03-01T15:52:53;77854.75;;;26.02
73673;BMP280;61972;19.480;-99.240;2023-03-01T15:55:28;77846.88;;;26.02
73673;BMP280;61972;19.480;-99.240;2023-03-01T15:58:10;77849.50;;;26.02
73673;BMP280;61972;19.480;-99.240;2023-03-01T16:00:38;77853.22;;;26.03
73673;BMP280;61972;19.480;-99.240;2023-03-01T16:03:05;77853.41;;;26.06
73673;BMP280;61972;19.480;-99.240;2023-03-01T16:05:34;77860.28;;;26.07
73673;BMP280;61972;19.480;-99.240;2023-03-01T16:08:02;77857.66;;;26.07
73673;BMP280;61972;19.480;-99.240;2023-03-01T16:10:30;77852.44;;;26.07
73673;BMP280;61972;19.480;-99.240;2023-03-01T16:12:57;77855.03;;;26.07
73673;BMP280;61972;19.480;-99.240;2023-03-01T16:15:26;77850.38;;;26.08